createdAt,value
2018-03-30T00:00:46.028Z,28.90
2018-03-30T00:03:13.428Z,26.33
2018-03-30T00:05:40.943Z,31.67
2018-03-30T00:08:09.164Z,34.30
2018-03-30T00:10:42.369Z,27.90
2018-03-30T00:13:09.809Z,34.57
2018-03-30T00:15:38.048Z,28.13
2018-03-30T00:18:05.556Z,27.70
2018-03-30T00:20:32.996Z,26.27
2018-03-30T00:23:00.459Z,26.50
2018-03-30T00:25:27.923Z,30.27
2018-03-30T00:27:55.368Z,27.77
2018-03-30T00:30:22.848Z,25.30
2018-03-30T00:32:50.299Z,25.13
2018-03-30T00:35:17.769Z,22.37
2018-03-30T00:37:45.221Z,24.47
2018-03-30T00:40:13.493Z,24.03
2018-03-30T00:42:40.953Z,23.07
2018-03-30T00:45:09.226Z,29.27
2018-03-30T00:47:36.679Z,25.20
2018-03-30T00:50:04.207Z,24.90
2018-03-30T00:52:32.425Z,21.97
2018-03-30T00:54:59.899Z,27.60
2018-03-30T00:57:27.381Z,20.70
2018-03-30T00:59:54.875Z,25.00
2018-03-30T01:02:22.356Z,24.23
2018-03-30T01:04:49.820Z,21.47
2018-03-30T01:07:17.283Z,25.17
2018-03-30T01:09:44.756Z,24.73
2018-03-30T01:12:13.721Z,24.10
2018-03-30T01:14:41.179Z,24.63
2018-03-30T01:17:10.177Z,23.20
2018-03-30T01:19:37.641Z,23.47
2018-03-30T01:22:05.111Z,20.93
2018-03-30T01:24:33.326Z,22.00
2018-03-30T01:27:00.795Z,28.10
2018-03-30T01:29:28.267Z,24.73
2018-03-30T01:31:55.754Z,23.70
2018-03-30T01:34:23.192Z,24.60
2018-03-30T01:36:50.747Z,20.33
2018-03-30T01:39:18.975Z,22.27
2018-03-30T01:41:46.431Z,28.93
2018-03-30T01:44:13.884Z,23.83
2018-03-30T01:46:41.363Z,22.33
2018-03-30T01:49:08.856Z,20.00
2018-03-30T01:51:36.321Z,25.00
2018-03-30T01:54:03.766Z,21.57
2018-03-30T01:56:31.239Z,21.13
2018-03-30T01:58:58.709Z,24.57
2018-03-30T02:01:26.157Z,20.83
2018-03-30T02:03:54.403Z,22.77
2018-03-30T02:06:21.856Z,18.43
2018-03-30T02:08:49.325Z,17.53
2018-03-30T02:11:16.785Z,20.70
2018-03-30T02:13:44.247Z,24.10
2018-03-30T02:16:11.701Z,21.13
2018-03-30T02:18:39.934Z,16.50
2018-03-30T02:21:07.385Z,20.37
2018-03-30T02:23:34.861Z,14.10
2018-03-30T02:26:02.323Z,15.40
2018-03-30T02:28:29.784Z,20.57
2018-03-30T02:30:57.237Z,13.53
2018-03-30T02:33:24.770Z,22.43
2018-03-30T02:35:52.225Z,19.93
2018-03-30T02:38:19.709Z,17.87
2018-03-30T02:40:47.157Z,17.10
2018-03-30T02:43:14.611Z,20.20
2018-03-30T02:45:42.069Z,17.37
2018-03-30T02:48:09.522Z,19.57
2018-03-30T02:50:37.024Z,17.40
2018-03-30T02:53:04.501Z,16.30
2018-03-30T02:55:32.002Z,19.87
2018-03-30T02:57:59.444Z,18.40
2018-03-30T03:00:26.907Z,17.90
2018-03-30T03:02:54.408Z,18.97
2018-03-30T03:05:21.889Z,17.60
2018-03-30T03:07:49.367Z,16.70
2018-03-30T03:10:16.832Z,15.73
2018-03-30T03:12:44.291Z,17.43
2018-03-30T03:15:11.734Z,19.30
2018-03-30T03:17:39.205Z,25.87
2018-03-30T03:20:06.669Z,18.50
2018-03-30T03:22:34.140Z,17.13
2018-03-30T03:25:01.618Z,20.60
2018-03-30T03:27:29.077Z,27.30
2018-03-30T03:29:56.515Z,22.80
2018-03-30T03:32:23.990Z,19.57
2018-03-30T03:34:51.457Z,20.17
2018-03-30T03:37:18.912Z,23.53
2018-03-30T03:39:47.160Z,28.17
2018-03-30T03:42:14.608Z,23.37
2018-03-30T03:44:42.105Z,18.53
2018-03-30T03:47:09.558Z,19.07
2018-03-30T03:49:37.029Z,21.03
2018-03-30T03:52:04.513Z,18.90
2018-03-30T03:54:31.981Z,20.50
2018-03-30T03:56:59.428Z,24.03
2018-03-30T03:59:26.884Z,22.97
2018-03-30T04:01:55.074Z,22.50
2018-03-30T04:04:22.529Z,26.10
2018-03-30T04:06:50.006Z,20.20
2018-03-30T04:09:17.475Z,18.80
2018-03-30T04:11:44.940Z,21.67
2018-03-30T04:14:12.395Z,17.40
2018-03-30T04:16:39.849Z,19.70
2018-03-30T04:19:08.094Z,17.93
2018-03-30T04:21:35.570Z,18.97
2018-03-30T04:24:03.019Z,19.70
2018-03-30T04:26:30.462Z,23.17
2018-03-30T04:28:57.968Z,18.73
2018-03-30T04:31:25.412Z,18.77
2018-03-30T04:33:52.880Z,20.93
2018-03-30T04:36:20.335Z,19.57
2018-03-30T04:38:48.656Z,22.03
2018-03-30T04:41:16.870Z,25.50
2018-03-30T04:43:44.351Z,19.80
2018-03-30T04:46:11.808Z,22.80
2018-03-30T04:48:39.276Z,19.07
2018-03-30T04:51:06.730Z,22.40
2018-03-30T04:53:34.217Z,21.70
2018-03-30T04:56:01.824Z,19.87
2018-03-30T04:58:30.038Z,25.73
2018-03-30T05:00:57.513Z,24.53
2018-03-30T05:03:24.963Z,23.33
2018-03-30T05:05:53.220Z,20.93
2018-03-30T05:08:20.664Z,23.83
2018-03-30T05:10:48.119Z,30.37
2018-03-30T05:13:15.607Z,36.20
2018-03-30T05:15:43.093Z,24.83
2018-03-30T05:18:10.556Z,22.47
2018-03-30T05:20:38.012Z,18.33
2018-03-30T05:23:05.482Z,20.30
2018-03-30T05:25:32.961Z,23.40
2018-03-30T05:28:00.397Z,23.23
2018-03-30T05:30:27.882Z,19.17
2018-03-30T05:32:55.348Z,16.80
2018-03-30T05:35:22.812Z,16.63
2018-03-30T05:37:50.311Z,23.83
2018-03-30T05:40:17.760Z,18.70
2018-03-30T05:42:45.235Z,25.73
2018-03-30T05:45:12.696Z,25.43
2018-03-30T05:47:40.170Z,22.50
2018-03-30T05:50:07.650Z,18.53
2018-03-30T05:52:35.112Z,27.33
2018-03-30T05:55:02.589Z,26.07
2018-03-30T05:57:30.049Z,16.57
2018-03-30T05:59:57.494Z,15.50
2018-03-30T06:02:25.045Z,17.07
2018-03-30T06:04:53.273Z,14.00
2018-03-30T06:07:20.722Z,18.13
2018-03-30T06:09:48.193Z,13.73
2018-03-30T06:12:15.671Z,17.40
2018-03-30T06:14:43.133Z,15.93
2018-03-30T06:17:10.584Z,13.47
2018-03-30T06:19:38.061Z,12.50
2018-03-30T06:22:05.531Z,12.10
2018-03-30T06:24:33.029Z,12.70
2018-03-30T06:27:00.482Z,19.13
2018-03-30T06:29:28.601Z,11.00
2018-03-30T06:31:56.068Z,14.70
2018-03-30T06:34:23.521Z,10.77
2018-03-30T06:36:50.993Z,12.43
2018-03-30T06:39:18.441Z,14.00
2018-03-30T06:41:45.889Z,14.57
2018-03-30T06:44:14.154Z,14.73
2018-03-30T06:46:41.601Z,18.73
2018-03-30T06:49:09.108Z,21.10
2018-03-30T06:51:36.543Z,13.10
2018-03-30T06:54:04.005Z,12.67
2018-03-30T06:56:31.475Z,18.83
2018-03-30T06:58:58.927Z,15.10
2018-03-30T07:01:26.719Z,18.93
2018-03-30T07:03:54.209Z,22.17
2018-03-30T07:06:21.660Z,19.80
2018-03-30T07:08:49.141Z,19.47
2018-03-30T07:11:16.601Z,17.90
2018-03-30T07:13:44.088Z,14.20
2018-03-30T07:16:11.580Z,18.23
2018-03-30T07:18:39.000Z,13.30
2018-03-30T07:21:06.492Z,20.67
2018-03-30T07:23:33.948Z,19.07
2018-03-30T07:26:01.410Z,14.17
2018-03-30T07:28:28.917Z,13.23
2018-03-30T07:30:56.368Z,13.10
2018-03-30T07:33:23.816Z,12.97
2018-03-30T07:35:51.298Z,14.70
2018-03-30T07:38:18.755Z,13.60
2018-03-30T07:40:46.212Z,14.17
2018-03-30T07:43:13.676Z,14.57
2018-03-30T07:45:41.121Z,15.47
2018-03-30T07:48:08.600Z,13.37
2018-03-30T07:50:36.054Z,19.47
2018-03-30T07:53:04.294Z,18.87
2018-03-30T07:55:31.745Z,16.03
2018-03-30T07:57:59.208Z,13.33
2018-03-30T08:00:26.691Z,16.60
2018-03-30T08:02:54.148Z,19.90
2018-03-30T08:05:21.628Z,17.60
2018-03-30T08:07:49.068Z,18.37
2018-03-30T08:10:17.289Z,17.47
2018-03-30T08:12:44.752Z,17.80
2018-03-30T08:15:12.221Z,15.97
2018-03-30T08:17:39.712Z,10.13
2018-03-30T08:20:07.176Z,10.50
2018-03-30T08:22:34.633Z,13.37
2018-03-30T08:25:02.144Z,11.83
2018-03-30T08:27:29.609Z,14.53
2018-03-30T08:29:57.062Z,8.77
2018-03-30T08:32:24.533Z,9.93
2018-03-30T08:34:51.976Z,12.47
2018-03-30T08:37:19.440Z,13.03
2018-03-30T08:39:46.916Z,8.20
2018-03-30T08:42:14.461Z,10.57
2018-03-30T08:44:42.681Z,11.77
2018-03-30T08:47:10.158Z,7.83
2018-03-30T08:49:37.635Z,12.03
2018-03-30T08:52:05.601Z,9.90
2018-03-30T08:54:33.077Z,7.87
2018-03-30T08:57:00.532Z,10.10
2018-03-30T08:59:28.001Z,8.30
2018-03-30T09:01:55.479Z,6.67
2018-03-30T09:04:22.925Z,7.80
2018-03-30T09:06:51.148Z,6.97
2018-03-30T09:09:18.605Z,8.70
2018-03-30T09:11:46.095Z,9.20
2018-03-30T09:14:13.552Z,8.70
2018-03-30T09:16:41.021Z,6.23
2018-03-30T09:19:08.472Z,7.00
2018-03-30T09:21:35.932Z,6.53
2018-03-30T09:24:03.377Z,6.03
2018-03-30T09:26:31.616Z,6.50
2018-03-30T09:28:59.085Z,6.70
2018-03-30T09:31:26.533Z,9.80
2018-03-30T09:33:54.016Z,8.23
2018-03-30T09:36:21.472Z,7.20
2018-03-30T09:38:48.952Z,4.57
2018-03-30T09:43:50.280Z,4.90
2018-03-30T09:46:17.759Z,12.23
2018-03-30T09:48:45.229Z,5.67
2018-03-30T09:51:12.670Z,8.70
2018-03-30T09:53:40.168Z,6.90
2018-03-30T09:56:07.608Z,7.10
2018-03-30T09:58:35.086Z,4.80
2018-03-30T10:01:18.361Z,5.30
2018-03-30T10:03:48.396Z,4.80
2018-03-30T10:06:15.862Z,5.03
2018-03-30T10:08:43.464Z,4.57
2018-03-30T10:11:12.491Z,5.40
2018-03-30T10:13:39.971Z,11.13
2018-03-30T10:16:07.465Z,5.10
2018-03-30T10:18:34.925Z,6.17
2018-03-30T10:21:02.425Z,6.57
2018-03-30T10:23:29.873Z,5.47
2018-03-30T10:25:57.359Z,4.50
2018-03-30T10:28:24.820Z,8.87
2018-03-30T10:30:52.268Z,11.90
2018-03-30T10:33:19.739Z,4.30
2018-03-30T10:35:47.226Z,5.90
2018-03-30T10:38:14.689Z,3.07
2018-03-30T10:40:42.160Z,3.33
2018-03-30T10:43:09.652Z,4.63
2018-03-30T10:45:37.109Z,5.50
2018-03-30T10:48:04.570Z,3.70
2018-03-30T10:50:32.048Z,4.80
2018-03-30T10:53:00.324Z,5.10
2018-03-30T10:55:27.768Z,6.13
2018-03-30T10:57:55.224Z,3.10
2018-03-30T11:00:22.708Z,7.00
2018-03-30T11:02:50.228Z,4.93
2018-03-30T11:05:17.719Z,5.03
2018-03-30T11:07:45.156Z,5.53
2018-03-30T11:10:12.630Z,6.30
2018-03-30T11:12:40.103Z,4.47
2018-03-30T11:15:08.324Z,3.80
2018-03-30T11:17:36.556Z,3.30
2018-03-30T11:20:04.015Z,3.73
2018-03-30T11:22:31.501Z,6.63
2018-03-30T11:24:58.956Z,4.77
2018-03-30T11:27:26.727Z,5.00
2018-03-30T11:29:54.200Z,5.43
2018-03-30T11:32:21.652Z,4.57
2018-03-30T11:34:49.124Z,4.80
2018-03-30T11:37:16.632Z,7.10
2018-03-30T11:39:44.219Z,4.87
2018-03-30T11:42:12.461Z,4.60
2018-03-30T11:44:39.991Z,4.03
2018-03-30T11:47:07.408Z,5.53
2018-03-30T11:49:34.864Z,4.80
2018-03-30T11:52:02.313Z,4.13
2018-03-30T11:54:29.776Z,7.00
2018-03-30T11:56:57.225Z,3.50
2018-03-30T11:59:25.480Z,5.87
2018-03-30T12:01:52.936Z,5.03
2018-03-30T12:04:20.431Z,5.10
2018-03-30T12:06:47.882Z,9.13
2018-03-30T12:09:15.332Z,5.50
2018-03-30T12:11:42.825Z,7.77
2018-03-30T12:14:10.354Z,7.27
2018-03-30T12:16:37.809Z,6.77
2018-03-30T12:19:05.287Z,10.90
2018-03-30T12:21:32.838Z,5.97
2018-03-30T12:24:00.348Z,6.90
2018-03-30T12:26:27.829Z,7.57
2018-03-30T12:28:55.312Z,4.97
2018-03-30T12:31:22.781Z,10.60
2018-03-30T12:33:50.243Z,6.93
2018-03-30T12:36:17.701Z,6.10
2018-03-30T12:38:45.237Z,4.87
2018-03-30T12:41:13.454Z,5.63
2018-03-30T12:43:40.910Z,6.03
2018-03-30T12:46:08.385Z,7.00
2018-03-30T12:48:35.855Z,4.43
2018-03-30T12:51:03.326Z,7.13
2018-03-30T12:53:30.781Z,5.40
2018-03-30T12:55:58.308Z,4.00
2018-03-30T12:58:25.748Z,5.13
2018-03-30T13:00:53.217Z,5.43
2018-03-30T13:03:20.713Z,5.07
2018-03-30T13:05:48.193Z,3.80
2018-03-30T13:08:15.648Z,4.00
2018-03-30T13:10:43.137Z,6.13
2018-03-30T13:13:10.629Z,5.50
2018-03-30T13:15:38.840Z,5.20
2018-03-30T13:18:06.311Z,4.50
2018-03-30T13:20:33.809Z,6.43
2018-03-30T13:23:01.266Z,3.57
2018-03-30T13:25:28.756Z,5.00
2018-03-30T13:27:56.200Z,5.50
2018-03-30T13:30:23.680Z,3.00
2018-03-30T13:32:51.137Z,4.10
2018-03-30T13:35:18.612Z,6.70
2018-03-30T13:37:46.076Z,5.40
2018-03-30T13:40:13.563Z,4.00
2018-03-30T13:42:41.035Z,3.63
2018-03-30T13:45:08.520Z,4.27
2018-03-30T13:47:35.998Z,5.63
2018-03-30T13:50:03.453Z,3.97
2018-03-30T13:52:53.457Z,4.23
2018-03-30T13:55:23.384Z,5.27
2018-03-30T13:57:55.629Z,7.70
2018-03-30T14:00:42.576Z,6.43
2018-03-30T14:03:17.598Z,5.03
2018-03-30T14:09:15.106Z,3.33
2018-03-30T14:11:48.532Z,5.13
2018-03-30T14:14:15.992Z,4.20
2018-03-30T14:16:45.130Z,3.40
2018-03-30T14:19:17.098Z,5.60
2018-03-30T14:24:41.435Z,4.33
2018-03-30T14:27:25.541Z,5.20
2018-03-30T14:30:05.225Z,4.80
2018-03-30T14:32:32.689Z,3.70
2018-03-30T14:35:04.965Z,8.40
2018-03-30T14:37:35.678Z,6.90
2018-03-30T14:40:16.703Z,4.17
2018-03-30T14:42:46.548Z,4.43
2018-03-30T14:48:26.696Z,4.00
2018-03-30T14:51:02.822Z,3.33
2018-03-30T14:53:34.831Z,4.43
2018-03-30T14:56:13.957Z,4.40
2018-03-30T14:58:46.182Z,4.70
2018-03-30T15:04:16.208Z,4.33
2018-03-30T15:06:44.432Z,4.57
2018-03-30T15:12:19.200Z,2.93
2018-03-30T15:14:49.387Z,6.60
2018-03-30T15:17:19.524Z,3.87
2018-03-30T15:19:49.711Z,6.00
2018-03-30T15:22:22.798Z,4.07
2018-03-30T15:24:55.680Z,3.73
2018-03-30T15:27:26.936Z,7.57
2018-03-30T15:30:05.990Z,6.13
2018-03-30T15:32:36.945Z,6.73
2018-03-30T15:35:05.182Z,4.30
2018-03-30T15:37:32.621Z,7.00
2018-03-30T15:40:15.813Z,4.97
2018-03-30T15:45:54.434Z,7.50
2018-03-30T15:48:22.659Z,4.10
2018-03-30T15:50:52.015Z,5.60
2018-03-30T15:53:18.979Z,4.37
2018-03-30T15:55:47.211Z,5.20
2018-03-30T15:58:14.712Z,4.10
2018-03-30T16:00:42.701Z,4.77
2018-03-30T16:03:10.170Z,7.50
2018-03-30T16:05:37.672Z,10.33
2018-03-30T16:08:05.917Z,4.57
2018-03-30T16:10:52.840Z,6.53
2018-03-30T16:13:20.352Z,5.30
2018-03-30T16:15:48.564Z,4.40
2018-03-30T16:18:16.022Z,6.17
2018-03-30T16:20:43.748Z,3.70
2018-03-30T16:23:10.724Z,4.00
2018-03-30T16:25:39.181Z,6.57
2018-03-30T16:28:06.171Z,3.83
2018-03-30T16:30:33.162Z,5.83
2018-03-30T16:33:00.884Z,4.20
2018-03-30T16:35:27.873Z,3.80
2018-03-30T16:37:54.877Z,5.17
2018-03-30T16:40:21.845Z,6.20
2018-03-30T16:42:48.810Z,4.67
2018-03-30T16:45:15.771Z,7.67
2018-03-30T16:47:42.745Z,5.80
2018-03-30T16:50:09.734Z,5.47
2018-03-30T16:52:37.508Z,4.30
2018-03-30T16:55:05.239Z,3.93
2018-03-30T16:57:32.192Z,4.70
2018-03-30T16:59:59.192Z,3.27
2018-03-30T17:02:26.142Z,4.13
2018-03-30T17:04:53.135Z,3.73
2018-03-30T17:07:20.131Z,5.10
2018-03-30T17:09:47.104Z,5.40
2018-03-30T17:12:14.082Z,5.67
2018-03-30T17:14:41.063Z,5.30
2018-03-30T17:17:08.793Z,2.90
2018-03-30T17:19:35.800Z,3.40
2018-03-30T17:22:02.764Z,3.47
2018-03-30T17:24:29.737Z,6.07
2018-03-30T17:26:56.700Z,4.30
2018-03-30T17:29:23.668Z,4.47
2018-03-30T17:31:50.646Z,4.17
2018-03-30T17:34:17.603Z,4.20
2018-03-30T17:36:44.586Z,6.13
2018-03-30T17:39:11.608Z,4.93
2018-03-30T17:41:38.565Z,5.30
2018-03-30T17:44:05.532Z,5.90
2018-03-30T17:46:32.514Z,4.87
2018-03-30T17:48:59.466Z,7.93
2018-03-30T17:51:26.448Z,3.63
2018-03-30T17:53:54.174Z,6.27
2018-03-30T17:56:21.144Z,5.40
2018-03-30T17:58:48.093Z,7.47
2018-03-30T18:01:15.079Z,5.90
2018-03-30T18:03:42.041Z,6.23
2018-03-30T18:06:09.834Z,4.97
2018-03-30T18:08:36.766Z,5.70
2018-03-30T18:11:03.732Z,6.77
2018-03-30T18:13:31.506Z,6.23
2018-03-30T18:15:58.452Z,6.80
2018-03-30T18:18:25.405Z,6.20
2018-03-30T18:20:52.377Z,6.83
2018-03-30T18:23:19.321Z,6.97
2018-03-30T18:25:47.169Z,7.30
2018-03-30T18:28:14.125Z,6.80
2018-03-30T18:30:41.080Z,6.10
2018-03-30T18:33:08.359Z,7.33
2018-03-30T18:35:35.326Z,3.67
2018-03-30T18:38:02.464Z,5.33
2018-03-30T18:40:29.423Z,6.17
2018-03-30T18:42:56.385Z,4.20
2018-03-30T18:45:23.344Z,6.10
2018-03-30T18:47:50.325Z,6.23
2018-03-30T18:50:17.471Z,7.37
2018-03-30T18:52:44.386Z,6.13
2018-03-30T18:55:11.345Z,4.97
2018-03-30T18:57:38.317Z,4.20
2018-03-30T19:00:05.281Z,5.27
2018-03-30T19:02:32.248Z,4.13
2018-03-30T19:04:59.196Z,4.90
2018-03-30T19:07:26.193Z,5.83
2018-03-30T19:09:53.161Z,6.37
2018-03-30T19:12:20.129Z,6.50
2018-03-30T19:14:47.991Z,4.20
2018-03-30T19:17:14.939Z,7.67
2018-03-30T19:19:41.902Z,4.63
2018-03-30T19:22:08.869Z,11.83
2018-03-30T19:24:35.831Z,5.00
2018-03-30T19:27:03.274Z,7.57
2018-03-30T19:29:30.233Z,7.27
2018-03-30T19:31:57.189Z,5.87
2018-03-30T19:34:24.148Z,6.20
2018-03-30T19:36:51.109Z,8.80
2018-03-30T19:39:18.263Z,8.43
2018-03-30T19:41:45.214Z,5.13
2018-03-30T19:44:12.168Z,5.87
2018-03-30T19:46:39.147Z,15.70
2018-03-30T19:49:06.106Z,8.17
2018-03-30T19:51:33.072Z,7.53
2018-03-30T19:54:00.042Z,11.63
2018-03-30T19:56:26.992Z,8.97
2018-03-30T19:58:53.968Z,7.40
2018-03-30T20:01:21.724Z,7.67
2018-03-30T20:03:48.888Z,8.70
2018-03-30T20:06:15.853Z,8.60
2018-03-30T20:08:42.821Z,7.40
2018-03-30T20:11:10.556Z,10.90
2018-03-30T20:13:37.524Z,10.77
2018-03-30T20:16:04.485Z,11.17
2018-03-30T20:18:31.432Z,15.23
2018-03-30T20:20:58.411Z,11.53
2018-03-30T20:23:25.374Z,9.97
2018-03-30T20:25:52.330Z,10.57
2018-03-30T20:28:19.336Z,9.40
2018-03-30T20:30:46.320Z,12.63
2018-03-30T20:33:13.300Z,15.87
2018-03-30T20:35:40.246Z,12.80
2018-03-30T20:38:07.204Z,14.37
2018-03-30T20:40:34.280Z,13.23
2018-03-30T20:43:01.240Z,10.13
2018-03-30T20:45:28.189Z,10.37
2018-03-30T20:47:55.171Z,15.47
2018-03-30T20:50:22.882Z,9.50
2018-03-30T20:52:49.850Z,12.17
2018-03-30T20:55:16.804Z,10.57
2018-03-30T20:57:43.768Z,10.50
2018-03-30T21:00:10.733Z,12.10
2018-03-30T21:02:37.906Z,14.33
2018-03-30T21:05:05.654Z,13.83
2018-03-30T21:07:32.628Z,10.97
2018-03-30T21:09:59.588Z,11.43
2018-03-30T21:12:26.550Z,11.77
2018-03-30T21:14:53.534Z,12.30
2018-03-30T21:17:20.510Z,12.83
2018-03-30T21:19:48.234Z,12.40
2018-03-30T21:22:15.208Z,12.60
2018-03-30T21:24:42.174Z,16.67
2018-03-30T21:27:09.141Z,15.03
2018-03-30T21:29:36.096Z,15.77
2018-03-30T21:32:03.063Z,12.30
2018-03-30T21:34:30.804Z,8.77
2018-03-30T21:36:57.743Z,9.13
2018-03-30T21:39:24.718Z,9.57
2018-03-30T21:41:51.684Z,11.27
2018-03-30T21:44:18.652Z,9.13
2018-03-30T21:46:45.620Z,9.23
2018-03-30T21:49:13.353Z,8.93
2018-03-30T21:51:40.315Z,8.27
2018-03-30T21:54:07.299Z,8.47
2018-03-30T21:56:34.259Z,7.90
2018-03-30T21:59:01.220Z,7.80
2018-03-30T22:01:28.229Z,7.57
2018-03-30T22:03:55.165Z,8.03
2018-03-30T22:06:22.894Z,9.80
2018-03-30T22:08:49.846Z,7.73
2018-03-30T22:11:16.830Z,7.73
2018-03-30T22:13:43.786Z,7.03
2018-03-30T22:16:10.778Z,5.20
2018-03-30T22:18:37.731Z,5.47
2018-03-30T22:21:04.687Z,4.50
2018-03-30T22:23:31.689Z,4.97
2018-03-30T22:25:58.641Z,4.50
2018-03-30T22:28:25.621Z,3.77
2018-03-30T22:30:52.588Z,4.20
2018-03-30T22:33:20.324Z,6.20
2018-03-30T22:35:48.087Z,3.80
2018-03-30T22:38:15.072Z,3.87
2018-03-30T22:40:42.059Z,4.03
2018-03-30T22:43:09.027Z,6.00
2018-03-30T22:45:36.788Z,8.63
2018-03-30T22:48:03.773Z,4.80
2018-03-30T22:50:31.489Z,4.07
2018-03-30T22:52:58.500Z,6.07
2018-03-30T22:55:26.238Z,4.20
2018-03-30T22:57:53.193Z,4.80
2018-03-30T23:00:20.876Z,4.80
2018-03-30T23:02:47.858Z,3.90
2018-03-30T23:05:14.828Z,4.30
2018-03-30T23:07:42.549Z,4.00
2018-03-30T23:10:09.534Z,4.20
2018-03-30T23:12:36.481Z,5.07
2018-03-30T23:15:03.457Z,8.20
2018-03-30T23:17:30.407Z,4.93
2018-03-30T23:19:57.560Z,4.43
2018-03-30T23:22:24.518Z,4.60
2018-03-30T23:24:51.470Z,4.83
2018-03-30T23:27:18.576Z,7.90
2018-03-30T23:29:46.294Z,5.30
2018-03-30T23:32:13.275Z,4.93
2018-03-30T23:34:40.248Z,5.63
2018-03-30T23:37:07.247Z,4.63
2018-03-30T23:39:35.142Z,4.77
2018-03-30T23:42:02.107Z,8.73
2018-03-30T23:44:29.073Z,5.20
2018-03-30T23:46:56.791Z,5.40
2018-03-30T23:49:24.516Z,5.50
2018-03-30T23:51:51.480Z,4.70
2018-03-30T23:54:18.431Z,7.10
2018-03-30T23:56:45.806Z,4.97
2018-03-30T23:59:12.758Z,6.27
